createdAt,value
2023-12-11T00:00:22.281Z,15.90
2023-12-11T00:03:30.465Z,16.50
2023-12-11T00:06:18.553Z,16.30
2023-12-11T00:09:06.615Z,17.30
2023-12-11T00:11:54.892Z,16.00
2023-12-11T00:14:43.155Z,15.90
2023-12-11T00:17:31.308Z,16.20
2023-12-11T00:20:19.587Z,16.40
2023-12-11T00:23:07.784Z,15.20
2023-12-11T00:25:57.952Z,15.50
2023-12-11T00:28:48.705Z,13.80
2023-12-11T00:31:36.583Z,12.20
2023-12-11T00:34:24.722Z,15.70
2023-12-11T00:37:14.215Z,15.60
2023-12-11T00:40:02.478Z,15.10
2023-12-11T00:42:50.097Z,14.60
2023-12-11T00:45:37.720Z,15.20
2023-12-11T00:48:26.542Z,13.70
2023-12-11T00:51:22.146Z,11.90
2023-12-11T00:54:10.004Z,15.30
2023-12-11T00:56:58.041Z,13.30
2023-12-11T00:59:45.540Z,16.10
2023-12-11T01:02:33.205Z,14.80
2023-12-11T01:05:21.322Z,14.40
2023-12-11T01:08:09.212Z,14.40
2023-12-11T01:10:58.892Z,13.80
2023-12-11T01:13:46.496Z,15.50
2023-12-11T01:16:35.060Z,15.70
2023-12-11T01:19:23.037Z,16.40
2023-12-11T01:22:11.824Z,15.70
2023-12-11T01:25:03.001Z,14.50
2023-12-11T01:27:50.921Z,13.70
2023-12-11T01:30:39.072Z,14.40
2023-12-11T01:33:27.712Z,15.00
2023-12-11T01:36:15.781Z,14.20
2023-12-11T01:39:03.408Z,15.00
2023-12-11T01:41:50.937Z,12.80
2023-12-11T01:44:38.918Z,15.10
2023-12-11T01:47:26.922Z,14.50
2023-12-11T01:50:14.879Z,15.70
2023-12-11T01:53:02.721Z,15.30
2023-12-11T01:55:51.376Z,13.20
2023-12-11T01:58:39.651Z,14.90
2023-12-11T02:01:28.091Z,14.20
2023-12-11T02:04:17.267Z,14.90
2023-12-11T02:07:05.430Z,13.20
2023-12-11T02:09:53.451Z,13.60
2023-12-11T02:12:43.975Z,13.30
2023-12-11T02:15:44.814Z,12.70
2023-12-11T02:18:33.025Z,14.10
2023-12-11T02:21:20.934Z,12.60
2023-12-11T02:24:22.590Z,12.50
2023-12-11T02:27:11.099Z,13.10
2023-12-11T02:29:58.745Z,11.50
2023-12-11T02:32:46.740Z,11.90
2023-12-11T02:35:34.452Z,12.40
2023-12-11T02:38:22.210Z,12.20
2023-12-11T02:41:10.048Z,10.30
2023-12-11T02:44:00.320Z,11.90
2023-12-11T02:46:48.296Z,11.80
2023-12-11T02:49:37.958Z,10.10
2023-12-11T02:52:25.933Z,11.70
2023-12-11T02:55:14.157Z,12.30
2023-12-11T02:58:04.327Z,12.30
2023-12-11T03:00:52.076Z,10.50
2023-12-11T03:03:40.227Z,11.70
2023-12-11T03:06:28.036Z,9.70
2023-12-11T03:09:15.785Z,10.60
2023-12-11T03:12:03.794Z,11.10
2023-12-11T03:14:51.623Z,10.90
2023-12-11T03:17:39.710Z,10.90
2023-12-11T03:20:27.864Z,11.60
2023-12-11T03:23:15.585Z,10.40
2023-12-11T03:26:03.339Z,10.40
2023-12-11T03:28:51.346Z,10.80
2023-12-11T03:31:39.218Z,11.80
2023-12-11T03:34:27.301Z,10.80
2023-12-11T03:37:15.319Z,10.30
2023-12-11T03:40:04.772Z,9.40
2023-12-11T03:42:52.920Z,11.00
2023-12-11T03:45:40.460Z,10.80
2023-12-11T03:48:29.124Z,9.40
2023-12-11T03:51:17.175Z,8.30
2023-12-11T03:54:05.161Z,9.50
2023-12-11T03:56:53.125Z,9.00
2023-12-11T03:59:42.041Z,9.60
2023-12-11T04:02:30.065Z,9.70
2023-12-11T04:05:18.875Z,8.00
2023-12-11T04:08:06.614Z,8.20
2023-12-11T04:10:54.692Z,7.50
2023-12-11T04:13:42.505Z,8.20
2023-12-11T04:16:30.423Z,8.80
2023-12-11T04:19:18.295Z,8.90
2023-12-11T04:22:07.842Z,8.00
2023-12-11T04:24:55.995Z,8.00
2023-12-11T04:27:43.779Z,9.10
2023-12-11T04:30:31.539Z,9.10
2023-12-11T04:33:19.350Z,8.60
2023-12-11T04:36:09.945Z,8.60
2023-12-11T04:38:57.598Z,8.30
2023-12-11T04:41:45.536Z,9.40
2023-12-11T04:44:34.458Z,8.40
2023-12-11T04:47:22.110Z,8.50
2023-12-11T04:50:12.385Z,8.60
2023-12-11T04:53:01.548Z,8.70
2023-12-11T04:55:49.471Z,8.50
2023-12-11T04:58:38.562Z,7.50
2023-12-11T05:01:28.192Z,7.90
2023-12-11T05:04:16.326Z,7.30
2023-12-11T05:07:05.683Z,7.20
2023-12-11T05:09:53.941Z,7.00
2023-12-11T05:12:42.098Z,6.40
2023-12-11T05:15:30.186Z,7.10
2023-12-11T05:18:18.181Z,6.30
2023-12-11T05:21:10.942Z,7.50
2023-12-11T05:23:58.767Z,7.30
2023-12-11T05:26:46.607Z,7.50
2023-12-11T05:29:34.493Z,7.00
2023-12-11T05:32:22.251Z,6.60
2023-12-11T05:35:10.208Z,8.50
2023-12-11T05:37:59.907Z,7.60
2023-12-11T05:40:50.309Z,8.10
2023-12-11T05:43:40.603Z,8.30
2023-12-11T05:46:29.970Z,8.20
2023-12-11T05:49:17.980Z,7.70
2023-12-11T05:52:06.673Z,7.70
2023-12-11T05:54:54.428Z,7.30
2023-12-11T05:57:42.173Z,7.10
2023-12-11T06:00:29.983Z,7.50
2023-12-11T06:03:18.141Z,7.60
2023-12-11T06:06:16.018Z,7.50
2023-12-11T06:09:04.411Z,6.80
2023-12-11T06:11:52.274Z,7.70
2023-12-11T06:14:46.283Z,6.80
2023-12-11T06:17:36.909Z,7.40
2023-12-11T06:20:25.281Z,7.10
2023-12-11T06:23:13.292Z,6.90
2023-12-11T06:26:01.395Z,6.00
2023-12-11T06:28:49.439Z,7.60
2023-12-11T06:31:37.091Z,6.80
2023-12-11T06:34:25.179Z,7.10
2023-12-11T06:37:13.209Z,6.80
2023-12-11T06:40:01.828Z,7.40
2023-12-11T06:42:50.036Z,6.80
2023-12-11T06:45:39.269Z,7.80
2023-12-11T06:48:27.132Z,6.60
2023-12-11T06:51:18.194Z,7.00
2023-12-11T06:54:19.512Z,7.10
2023-12-11T06:57:07.645Z,8.00
2023-12-11T06:59:55.796Z,6.90
2023-12-11T07:02:43.821Z,7.80
2023-12-11T07:05:31.933Z,7.80
2023-12-11T07:08:20.032Z,8.50
2023-12-11T07:11:08.874Z,8.30
2023-12-11T07:13:57.130Z,7.10
2023-12-11T07:16:45.162Z,6.30
2023-12-11T07:19:33.014Z,8.70
2023-12-11T07:22:21.355Z,12.10
2023-12-11T07:25:09.521Z,7.80
2023-12-11T07:27:57.208Z,9.20
2023-12-11T07:30:44.909Z,9.20
2023-12-11T07:33:34.382Z,11.00
2023-12-11T07:36:23.000Z,8.00
2023-12-11T07:39:13.028Z,8.60
2023-12-11T07:42:00.964Z,8.70
2023-12-11T07:44:48.841Z,8.90
2023-12-11T07:47:36.972Z,9.80
2023-12-11T07:50:26.426Z,9.00
2023-12-11T07:53:14.385Z,7.40
2023-12-11T07:56:02.077Z,8.40
2023-12-11T07:58:51.241Z,8.70
2023-12-11T08:01:39.471Z,8.20
2023-12-11T08:04:27.437Z,8.40
2023-12-11T08:07:16.810Z,9.10
2023-12-11T08:10:05.731Z,8.80
2023-12-11T08:12:54.306Z,8.40
2023-12-11T08:15:42.512Z,9.90
2023-12-11T08:18:30.634Z,10.10
2023-12-11T08:21:18.655Z,9.30
2023-12-11T08:24:07.045Z,9.60
2023-12-11T08:26:56.639Z,7.80
2023-12-11T08:29:44.662Z,7.90
2023-12-11T08:32:32.540Z,9.70
2023-12-11T08:35:20.401Z,10.80
2023-12-11T08:38:08.309Z,10.40
2023-12-11T08:40:56.448Z,10.80
2023-12-11T08:43:44.382Z,11.00
2023-12-11T08:46:33.012Z,10.20
2023-12-11T08:49:21.802Z,10.90
2023-12-11T08:52:09.532Z,10.80
2023-12-11T08:54:57.007Z,10.70
2023-12-11T08:57:46.481Z,10.60
2023-12-11T09:00:34.558Z,12.70
2023-12-11T09:03:22.654Z,12.50
2023-12-11T09:06:11.236Z,11.70
2023-12-11T09:08:59.085Z,11.40
2023-12-11T09:11:47.558Z,13.00
2023-12-11T09:14:35.517Z,13.00
2023-12-11T09:17:23.353Z,10.90
2023-12-11T09:20:11.849Z,13.20
2023-12-11T09:23:01.376Z,11.70
2023-12-11T09:25:50.218Z,13.50
2023-12-11T09:28:48.372Z,12.90
2023-12-11T09:31:39.852Z,13.20
2023-12-11T09:34:27.940Z,13.10
2023-12-11T09:37:22.890Z,13.00
2023-12-11T09:40:12.401Z,12.80
2023-12-11T09:43:03.536Z,12.10
2023-12-11T09:45:53.058Z,12.20
2023-12-11T09:48:40.835Z,12.50
2023-12-11T09:51:28.999Z,12.60
2023-12-11T09:54:16.868Z,12.60
2023-12-11T09:57:06.774Z,13.80
2023-12-11T09:59:54.617Z,13.40
2023-12-11T10:02:44.077Z,13.30
2023-12-11T10:06:00.802Z,12.60
2023-12-11T10:08:50.777Z,10.30
2023-12-11T10:11:38.793Z,14.10
2023-12-11T10:14:30.062Z,12.90
2023-12-11T10:17:19.021Z,12.50
2023-12-11T10:20:18.221Z,12.60
2023-12-11T10:23:15.504Z,11.30
2023-12-11T10:26:07.777Z,11.90
2023-12-11T10:28:55.596Z,10.40
2023-12-11T10:31:43.596Z,13.30
2023-12-11T10:34:53.086Z,13.50
2023-12-11T10:37:40.870Z,13.60
2023-12-11T10:40:43.150Z,13.70
2023-12-11T10:46:39.090Z,15.50
2023-12-11T10:49:27.258Z,14.00
2023-12-11T10:52:15.514Z,13.00
2023-12-11T10:55:06.165Z,15.40
2023-12-11T10:57:54.674Z,13.10
2023-12-11T11:00:43.082Z,12.40
2023-12-11T11:03:32.005Z,11.30
2023-12-11T11:06:22.970Z,13.90
2023-12-11T11:09:14.575Z,14.30
2023-12-11T11:12:12.348Z,10.80
2023-12-11T11:15:00.290Z,10.50
2023-12-11T11:18:08.060Z,13.00
2023-12-11T11:21:13.761Z,12.50
2023-12-11T11:24:01.855Z,12.90
2023-12-11T11:26:50.336Z,9.80
2023-12-11T11:29:39.525Z,12.10
2023-12-11T11:32:57.936Z,12.30
2023-12-11T11:35:55.644Z,11.60
2023-12-11T11:38:57.936Z,12.20
2023-12-11T11:41:46.103Z,10.10
2023-12-11T11:44:34.372Z,12.40
2023-12-11T11:47:22.035Z,13.00
2023-12-11T11:50:15.055Z,12.20
2023-12-11T11:53:10.093Z,13.70
2023-12-11T11:56:02.129Z,13.70
2023-12-11T11:58:50.202Z,12.30
2023-12-11T12:01:53.464Z,13.40
2023-12-11T12:04:41.375Z,12.70
2023-12-11T12:07:30.519Z,12.90
2023-12-11T12:10:18.979Z,13.80
2023-12-11T12:13:08.013Z,14.60
2023-12-11T12:15:56.370Z,13.60
2023-12-11T12:18:51.510Z,12.40
2023-12-11T12:21:57.675Z,12.30
2023-12-11T12:24:50.109Z,13.40
2023-12-11T12:27:38.123Z,11.80
2023-12-11T12:30:28.770Z,13.10
2023-12-11T12:33:19.832Z,14.30
2023-12-11T12:36:08.260Z,14.60
2023-12-11T12:38:56.318Z,16.80
2023-12-11T12:41:44.225Z,18.00
2023-12-11T12:44:38.894Z,15.40
2023-12-11T12:47:26.691Z,14.50
2023-12-11T12:50:24.515Z,14.60
2023-12-11T12:53:14.536Z,13.30
2023-12-11T12:56:02.474Z,14.80
2023-12-11T12:58:51.060Z,13.90
2023-12-11T13:01:42.484Z,16.60
2023-12-11T13:04:30.442Z,16.60
2023-12-11T13:07:20.272Z,14.40
2023-12-11T13:10:15.290Z,14.70
2023-12-11T13:13:15.561Z,13.90
2023-12-11T13:16:04.375Z,14.10
2023-12-11T13:18:53.276Z,15.10
2023-12-11T13:21:46.274Z,14.50
2023-12-11T13:24:34.293Z,13.80
2023-12-11T13:27:26.481Z,12.30
2023-12-11T13:30:18.003Z,13.60
2023-12-11T13:33:06.470Z,13.90
2023-12-11T13:35:54.086Z,13.80
2023-12-11T13:38:43.608Z,13.80
2023-12-11T13:41:36.181Z,13.50
2023-12-11T13:44:24.156Z,13.20
2023-12-11T13:47:11.954Z,14.80
2023-12-11T13:49:59.673Z,15.60
2023-12-11T13:52:48.096Z,15.90
2023-12-11T13:55:35.841Z,14.50
2023-12-11T13:58:23.629Z,12.30
2023-12-11T14:01:12.078Z,12.80
2023-12-11T14:04:00.284Z,16.80
2023-12-11T14:06:48.620Z,17.50
2023-12-11T14:09:37.132Z,19.40
2023-12-11T14:12:25.926Z,20.00
2023-12-11T14:15:14.104Z,21.60
2023-12-11T14:18:04.585Z,22.90
2023-12-11T14:20:55.085Z,24.10
2023-12-11T14:23:43.174Z,21.80
2023-12-11T14:26:33.191Z,20.60
2023-12-11T14:29:23.390Z,19.90
2023-12-11T14:32:11.908Z,20.60
2023-12-11T14:35:00.004Z,22.10
2023-12-11T14:37:48.204Z,23.50
2023-12-11T14:40:36.487Z,22.90
2023-12-11T14:43:25.196Z,22.80
2023-12-11T14:46:13.525Z,24.30
2023-12-11T14:49:01.780Z,21.70
2023-12-11T14:51:49.968Z,21.70
2023-12-11T14:54:37.889Z,19.50
2023-12-11T14:57:25.547Z,19.50
2023-12-11T15:00:13.753Z,19.60
2023-12-11T15:03:01.798Z,20.00
2023-12-11T15:05:50.618Z,18.20
2023-12-11T15:08:40.926Z,20.80
2023-12-11T15:11:29.686Z,19.60
2023-12-11T15:14:17.645Z,19.90
2023-12-11T15:17:07.039Z,21.90
2023-12-11T15:19:54.903Z,24.00
2023-12-11T15:22:44.191Z,21.40
2023-12-11T15:25:32.219Z,20.90
2023-12-11T15:28:20.102Z,18.10
2023-12-11T15:31:13.498Z,19.10
2023-12-11T15:34:05.597Z,19.70
2023-12-11T15:36:54.053Z,20.20
2023-12-11T15:39:41.780Z,19.60
2023-12-11T15:42:29.583Z,19.40
2023-12-11T15:45:18.372Z,21.10
2023-12-11T15:48:06.720Z,22.00
2023-12-11T15:53:17.030Z,23.30
2023-12-11T15:56:08.746Z,22.30
2023-12-11T15:58:59.271Z,21.40
2023-12-11T16:01:47.701Z,22.50
2023-12-11T16:04:35.810Z,23.90
2023-12-11T16:07:24.389Z,24.60
2023-12-11T16:10:13.116Z,23.10
2023-12-11T16:13:01.740Z,30.60
2023-12-11T16:15:50.103Z,30.90
2023-12-11T16:18:46.070Z,35.30
2023-12-11T16:21:40.286Z,32.70
2023-12-11T16:24:28.426Z,31.50
2023-12-11T16:27:18.204Z,27.40
2023-12-11T16:30:11.239Z,29.10
2023-12-11T16:32:59.725Z,28.60
2023-12-11T16:35:47.844Z,28.70
2023-12-11T16:38:37.966Z,26.30
2023-12-11T16:41:29.160Z,24.80
2023-12-11T16:44:17.658Z,25.20
2023-12-11T16:47:05.837Z,24.40
2023-12-11T16:50:02.095Z,24.40
2023-12-11T16:52:56.064Z,26.40
2023-12-11T16:55:44.045Z,26.90
2023-12-11T16:58:33.078Z,28.20
2023-12-11T17:01:23.136Z,28.10
2023-12-11T17:04:13.759Z,29.10
2023-12-11T17:07:01.902Z,26.40
2023-12-11T17:09:50.171Z,23.80
2023-12-11T17:12:38.291Z,24.00
2023-12-11T17:15:27.033Z,25.10
2023-12-11T17:18:15.464Z,26.40
2023-12-11T17:21:06.815Z,26.60
2023-12-11T17:23:55.282Z,27.60
2023-12-11T17:26:43.136Z,26.20
2023-12-11T17:29:31.443Z,26.70
2023-12-11T17:32:19.213Z,25.60
2023-12-11T17:35:08.392Z,24.50
2023-12-11T17:37:57.025Z,22.00
2023-12-11T17:40:44.822Z,20.00
2023-12-11T17:43:32.809Z,20.90
2023-12-11T17:46:20.876Z,20.40
2023-12-11T17:49:09.266Z,20.80
2023-12-11T17:51:58.044Z,22.30
2023-12-11T17:54:50.445Z,21.70
2023-12-11T17:57:39.361Z,22.30
2023-12-11T18:00:28.306Z,22.60
2023-12-11T18:03:16.043Z,23.50
2023-12-11T18:06:05.018Z,24.00
2023-12-11T18:08:52.495Z,23.60
2023-12-11T18:11:40.860Z,25.90
2023-12-11T18:14:29.317Z,25.60
2023-12-11T18:17:18.275Z,24.80
2023-12-11T18:20:08.219Z,25.10
2023-12-11T18:22:58.369Z,23.80
2023-12-11T18:25:46.304Z,23.20
2023-12-11T18:28:34.581Z,23.40
2023-12-11T18:31:23.470Z,25.00
2023-12-11T18:34:12.212Z,24.50
2023-12-11T18:37:06.072Z,25.60
2023-12-11T18:39:54.218Z,24.30
2023-12-11T18:42:45.154Z,24.30
2023-12-11T18:45:32.829Z,23.90
2023-12-11T18:48:23.705Z,21.80
2023-12-11T18:51:13.291Z,22.20
2023-12-11T18:54:03.926Z,23.80
2023-12-11T18:56:52.658Z,24.20
2023-12-11T18:59:40.683Z,22.60
2023-12-11T19:02:30.161Z,23.00
2023-12-11T19:05:18.676Z,24.60
2023-12-11T19:08:06.801Z,24.00
2023-12-11T19:10:56.768Z,24.40
2023-12-11T19:13:45.416Z,28.40
2023-12-11T19:16:33.695Z,28.20
2023-12-11T19:19:21.929Z,28.80
2023-12-11T19:22:09.947Z,27.90
2023-12-11T19:24:58.425Z,26.90
2023-12-11T19:27:47.163Z,28.50
2023-12-11T19:30:35.503Z,27.10
2023-12-11T19:33:23.426Z,26.00
2023-12-11T19:36:11.985Z,24.90
2023-12-11T19:39:00.155Z,26.20
2023-12-11T19:41:48.553Z,31.90
2023-12-11T19:44:36.279Z,31.40
2023-12-11T19:47:26.021Z,28.90
2023-12-11T19:50:14.910Z,30.60
2023-12-11T19:53:03.109Z,31.20
2023-12-11T19:55:51.543Z,29.40
2023-12-11T19:58:41.752Z,27.40
2023-12-11T20:01:32.002Z,25.80
2023-12-11T20:04:20.859Z,24.70
2023-12-11T20:07:10.278Z,27.40
2023-12-11T20:09:58.687Z,24.20
2023-12-11T20:12:49.306Z,25.50
2023-12-11T20:15:38.693Z,22.80
2023-12-11T20:18:27.546Z,22.80
2023-12-11T20:21:16.510Z,22.80
2023-12-11T20:24:06.330Z,22.50
2023-12-11T20:26:55.502Z,21.90
2023-12-11T20:29:43.749Z,22.30
2023-12-11T20:32:33.823Z,24.40
2023-12-11T20:35:22.250Z,24.40
2023-12-11T20:38:10.921Z,23.40
2023-12-11T20:40:58.872Z,21.00
2023-12-11T20:43:52.035Z,21.80
2023-12-11T20:46:40.458Z,19.70
2023-12-11T20:49:29.097Z,19.30
2023-12-11T20:52:17.841Z,19.90
2023-12-11T20:55:08.322Z,18.50
2023-12-11T20:57:56.556Z,18.90
2023-12-11T21:00:44.885Z,18.90
2023-12-11T21:03:33.064Z,18.90
2023-12-11T21:06:22.178Z,18.00
2023-12-11T21:09:12.270Z,15.50
2023-12-11T21:12:00.922Z,13.30
2023-12-11T21:14:49.973Z,14.00
2023-12-11T21:17:41.827Z,13.00
2023-12-11T21:20:30.263Z,13.10
2023-12-11T21:23:18.818Z,14.70
2023-12-11T21:26:14.577Z,14.10
2023-12-11T21:29:02.823Z,14.60
2023-12-11T21:31:51.340Z,15.80
2023-12-11T21:34:44.087Z,17.40
2023-12-11T21:37:32.860Z,18.10
2023-12-11T21:40:21.471Z,19.20
2023-12-11T21:43:09.960Z,18.40
2023-12-11T21:45:59.801Z,19.20
2023-12-11T21:48:49.790Z,16.30
2023-12-11T21:51:38.202Z,16.60
2023-12-11T21:54:26.722Z,15.00
2023-12-11T21:57:15.116Z,18.40
2023-12-11T22:00:03.412Z,18.50
2023-12-11T22:03:02.246Z,18.30
2023-12-11T22:05:50.848Z,19.10
2023-12-11T22:08:39.101Z,17.50
2023-12-11T22:11:27.573Z,18.90
2023-12-11T22:14:15.801Z,19.00
2023-12-11T22:17:04.368Z,18.00
2023-12-11T22:19:52.541Z,18.90
2023-12-11T22:22:41.276Z,18.10
2023-12-11T22:25:29.456Z,18.70
2023-12-11T22:28:17.644Z,16.70
2023-12-11T22:31:05.823Z,17.40
2023-12-11T22:33:54.275Z,14.90
2023-12-11T22:36:42.565Z,16.20
2023-12-11T22:39:32.711Z,17.50
2023-12-11T22:42:21.329Z,16.50
2023-12-11T22:45:10.085Z,19.50
2023-12-11T22:47:58.811Z,17.50
2023-12-11T22:50:47.209Z,17.00
2023-12-11T22:53:36.736Z,20.20
2023-12-11T22:56:24.518Z,18.80
2023-12-11T22:59:12.555Z,18.80
2023-12-11T23:02:04.063Z,18.50
2023-12-11T23:04:53.190Z,14.40
2023-12-11T23:07:41.654Z,15.80
2023-12-11T23:10:30.268Z,11.60
2023-12-11T23:13:18.342Z,11.60
2023-12-11T23:16:08.065Z,11.20
2023-12-11T23:19:00.528Z,11.80
2023-12-11T23:21:50.536Z,11.30
2023-12-11T23:24:39.059Z,10.80
2023-12-11T23:27:27.098Z,10.80
2023-12-11T23:30:15.558Z,10.50
2023-12-11T23:33:04.093Z,11.10
2023-12-11T23:35:51.932Z,10.40
2023-12-11T23:38:40.291Z,11.20
2023-12-11T23:41:28.319Z,10.30
2023-12-11T23:44:16.203Z,11.30
2023-12-11T23:47:04.765Z,10.60
2023-12-11T23:49:53.102Z,10.60
2023-12-11T23:52:41.405Z,9.90
2023-12-11T23:55:30.190Z,9.70
2023-12-11T23:58:18.348Z,10.20
